createdAt,value
2023-09-21T00:01:10.242Z,99318.47
2023-09-21T00:03:37.941Z,99308.97
2023-09-21T00:06:12.438Z,99271.16
2023-09-21T00:08:38.932Z,99252.16
2023-09-21T00:11:06.913Z,99281.06
2023-09-21T00:13:33.802Z,99305.25
2023-09-21T00:16:02.552Z,99295.13
2023-09-21T00:18:30.249Z,99274.88
2023-09-21T00:20:58.570Z,99264.56
2023-09-21T00:23:26.410Z,99286.44
2023-09-21T00:25:53.830Z,99298.59
2023-09-21T00:28:20.570Z,99325.41
2023-09-21T00:30:47.666Z,99332.22
2023-09-21T00:33:14.384Z,99347.28
2023-09-21T00:35:41.242Z,99344.00
2023-09-21T00:38:11.495Z,99334.06
2023-09-21T00:40:40.128Z,99338.19
2023-09-21T00:43:09.751Z,99337.16
2023-09-21T00:45:45.054Z,99334.88
2023-09-21T00:48:11.877Z,99335.09
2023-09-21T00:50:40.131Z,99328.88
2023-09-21T00:53:08.050Z,99322.69
2023-09-21T00:55:36.022Z,99314.88
2023-09-21T00:58:03.581Z,99308.28
2023-09-21T01:00:32.092Z,99316.09
2023-09-21T01:03:03.519Z,99309.97
2023-09-21T01:05:30.067Z,99290.94
2023-09-21T01:07:59.444Z,99278.94
2023-09-21T01:10:27.226Z,99260.78
2023-09-21T01:12:53.729Z,99274.41
2023-09-21T01:15:20.302Z,99263.25
2023-09-21T01:17:46.830Z,99260.38
2023-09-21T01:20:15.359Z,99252.75
2023-09-21T01:22:51.247Z,99247.56
2023-09-21T01:25:17.972Z,99257.44
2023-09-21T01:27:44.396Z,99279.06
2023-09-21T01:30:11.783Z,99303.81
2023-09-21T01:32:39.204Z,99312.09
2023-09-21T01:35:09.066Z,99317.19
2023-09-21T01:37:35.509Z,99327.50
2023-09-21T01:40:04.649Z,99325.69
2023-09-21T01:42:32.421Z,99324.84
2023-09-21T01:44:59.162Z,99318.03
2023-09-21T01:47:25.971Z,99326.69
2023-09-21T01:49:52.464Z,99324.06
2023-09-21T01:52:19.021Z,99305.13
2023-09-21T01:54:45.751Z,99271.28
2023-09-21T01:57:12.258Z,99246.91
2023-09-21T01:59:38.722Z,99252.88
2023-09-21T02:02:05.310Z,99241.50
2023-09-21T02:04:33.004Z,99248.09
2023-09-21T02:06:59.462Z,99258.59
2023-09-21T02:09:27.091Z,99248.09
2023-09-21T02:11:53.576Z,99246.22
2023-09-21T02:14:20.224Z,99257.56
2023-09-21T02:16:46.955Z,99258.97
2023-09-21T02:19:13.698Z,99270.06
2023-09-21T02:21:40.065Z,99280.13
2023-09-21T02:24:06.993Z,98029.50
2023-09-21T02:26:33.398Z,98013.09
2023-09-21T02:29:00.097Z,98016.59
2023-09-21T02:31:26.866Z,98005.75
2023-09-21T02:33:53.499Z,97994.56
2023-09-21T02:36:20.061Z,97990.59
2023-09-21T02:38:50.670Z,97987.13
2023-09-21T02:41:17.441Z,97977.91
2023-09-21T02:43:43.904Z,97968.59
2023-09-21T02:46:10.773Z,97961.13
2023-09-21T02:48:37.314Z,97952.88
2023-09-21T02:51:04.086Z,97955.31
2023-09-21T02:53:33.297Z,97960.44
2023-09-21T02:56:00.765Z,97970.44
2023-09-21T02:58:27.180Z,97972.78
2023-09-21T03:00:53.850Z,97985.84
2023-09-21T03:03:21.928Z,97991.78
2023-09-21T03:05:50.893Z,97982.09
2023-09-21T03:08:25.787Z,97968.97
2023-09-21T03:10:55.025Z,97978.16
2023-09-21T03:13:22.132Z,97991.78
2023-09-21T03:15:54.591Z,97996.94
2023-09-21T03:18:22.743Z,97997.88
2023-09-21T03:20:52.726Z,97988.97
2023-09-21T03:23:19.323Z,97991.09
2023-09-21T03:25:47.325Z,97994.47
2023-09-21T03:28:21.106Z,98001.25
2023-09-21T03:30:52.553Z,97998.31
2023-09-21T03:33:21.022Z,97997.75
2023-09-21T03:35:48.115Z,97999.13
2023-09-21T03:38:14.750Z,97998.44
2023-09-21T03:40:42.585Z,97997.72
2023-09-21T03:43:10.535Z,98012.44
2023-09-21T03:45:37.742Z,98017.56
2023-09-21T03:48:04.736Z,98011.03
2023-09-21T03:50:32.171Z,98015.47
2023-09-21T03:52:59.933Z,98023.13
2023-09-21T03:55:26.711Z,98025.00
2023-09-21T03:57:54.337Z,98034.22
2023-09-21T04:00:25.934Z,98034.59
2023-09-21T04:02:55.904Z,98049.31
2023-09-21T04:05:29.699Z,98049.16
2023-09-21T04:07:56.283Z,98053.25
2023-09-21T04:10:23.023Z,98046.47
2023-09-21T04:12:50.098Z,98042.50
2023-09-21T04:15:18.002Z,98036.00
2023-09-21T04:17:44.514Z,98034.69
2023-09-21T04:20:11.585Z,98028.03
2023-09-21T04:22:42.387Z,98028.19
2023-09-21T04:25:11.267Z,98049.88
2023-09-21T04:28:04.170Z,98061.41
2023-09-21T04:30:30.959Z,98060.50
2023-09-21T04:32:57.540Z,98048.69
2023-09-21T04:35:24.465Z,98037.72
2023-09-21T04:37:51.641Z,98024.88
2023-09-21T04:40:18.467Z,98019.88
2023-09-21T04:42:55.514Z,98024.66
2023-09-21T04:45:23.000Z,98026.75
2023-09-21T04:47:49.775Z,98039.13
2023-09-21T04:50:17.890Z,98058.59
2023-09-21T04:52:45.985Z,98073.31
2023-09-21T04:55:13.406Z,98075.88
2023-09-21T04:57:39.914Z,98044.59
2023-09-21T05:00:06.988Z,98029.56
2023-09-21T05:02:33.929Z,98021.50
2023-09-21T05:05:00.817Z,98006.56
2023-09-21T05:07:27.345Z,98013.13
2023-09-21T05:09:54.060Z,98012.69
2023-09-21T05:12:20.676Z,98015.56
2023-09-21T05:14:49.650Z,98039.59
2023-09-21T05:17:18.917Z,98046.44
2023-09-21T05:19:45.750Z,98042.72
2023-09-21T05:22:12.373Z,98041.44
2023-09-21T05:24:39.669Z,98031.53
2023-09-21T05:27:06.908Z,97996.69
2023-09-21T05:29:33.715Z,97981.06
2023-09-21T05:32:00.688Z,97963.34
2023-09-21T05:34:30.527Z,97957.59
2023-09-21T05:36:58.304Z,97949.09
2023-09-21T05:39:25.198Z,97944.06
2023-09-21T05:41:52.375Z,97951.16
2023-09-21T05:44:20.237Z,97973.88
2023-09-21T05:46:46.796Z,97985.03
2023-09-21T05:49:14.136Z,97982.09
2023-09-21T05:51:40.732Z,97996.69
2023-09-21T05:54:07.416Z,98001.91
2023-09-21T05:56:36.100Z,98001.19
2023-09-21T05:59:02.528Z,98004.34
2023-09-21T06:01:29.217Z,97979.03
2023-09-21T06:03:55.928Z,97960.06
2023-09-21T06:06:23.094Z,97948.66
2023-09-21T06:08:49.580Z,97923.47
2023-09-21T06:11:17.413Z,97919.50
2023-09-21T06:13:43.919Z,97914.31
2023-09-21T06:16:10.488Z,97927.31
2023-09-21T06:18:38.088Z,97933.75
2023-09-21T06:21:04.675Z,97970.47
2023-09-21T06:23:31.783Z,98009.94
2023-09-21T06:25:58.258Z,98033.00
2023-09-21T06:28:24.707Z,98052.84
2023-09-21T06:30:51.350Z,98073.69
2023-09-21T06:33:18.035Z,98086.47
2023-09-21T06:35:49.811Z,98076.78
2023-09-21T06:38:17.638Z,98073.69
2023-09-21T06:40:44.789Z,98079.09
2023-09-21T06:43:11.315Z,98081.34
2023-09-21T06:45:39.074Z,98087.94
2023-09-21T06:48:05.804Z,98100.75
2023-09-21T06:50:32.606Z,98103.03
2023-09-21T06:52:59.136Z,98115.47
2023-09-21T06:55:25.946Z,98132.59
2023-09-21T06:57:52.523Z,98152.09
2023-09-21T07:00:19.000Z,98160.41
2023-09-21T07:02:45.662Z,98164.19
2023-09-21T07:05:12.353Z,98175.16
2023-09-21T07:07:39.712Z,98192.28
2023-09-21T07:10:06.790Z,98201.25
2023-09-21T07:12:33.332Z,98204.75
2023-09-21T07:14:59.822Z,98209.34
2023-09-21T07:17:26.378Z,98206.41
2023-09-21T07:19:53.119Z,98207.41
2023-09-21T07:22:20.016Z,98222.34
2023-09-21T07:24:46.753Z,98225.34
2023-09-21T07:27:13.250Z,98218.72
2023-09-21T07:29:39.792Z,98217.25
2023-09-21T07:32:08.006Z,98212.53
2023-09-21T07:34:38.540Z,98216.13
2023-09-21T07:37:06.109Z,98221.31
2023-09-21T07:39:32.696Z,98408.94
2023-09-21T07:41:59.624Z,98364.63
2023-09-21T07:44:27.496Z,98368.00
2023-09-21T07:46:55.525Z,98334.31
2023-09-21T07:49:22.942Z,98318.50
2023-09-21T07:51:49.997Z,98310.22
2023-09-21T07:54:16.762Z,98292.25
2023-09-21T07:56:43.389Z,98193.97
2023-09-21T07:59:09.940Z,98144.06
2023-09-21T08:01:37.203Z,98101.81
2023-09-21T08:04:05.674Z,98066.13
2023-09-21T08:06:33.932Z,98016.09
2023-09-21T08:09:05.505Z,97972.50
2023-09-21T08:11:36.987Z,97960.91
2023-09-21T08:14:06.272Z,97960.34
2023-09-21T08:16:36.809Z,97938.34
2023-09-21T08:19:03.458Z,97919.34
2023-09-21T08:21:29.975Z,97882.91
2023-09-21T08:23:56.732Z,97854.00
2023-09-21T08:26:23.940Z,97867.69
2023-09-21T08:28:57.806Z,97887.16
2023-09-21T08:31:24.684Z,97873.13
2023-09-21T08:33:55.796Z,97847.91
2023-09-21T08:36:22.621Z,97821.59
2023-09-21T08:38:52.587Z,97817.09
2023-09-21T08:41:19.631Z,97790.53
2023-09-21T08:43:46.951Z,97787.06
2023-09-21T08:46:14.495Z,97790.91
2023-09-21T08:48:45.108Z,97770.09
2023-09-21T08:51:20.056Z,97759.28
2023-09-21T08:53:54.841Z,97740.22
2023-09-21T08:56:25.215Z,97702.03
2023-09-21T08:58:58.295Z,97673.44
2023-09-21T09:01:26.959Z,97631.53
2023-09-21T09:03:54.840Z,97598.22
2023-09-21T09:06:24.244Z,97580.88
2023-09-21T09:08:50.950Z,97573.84
2023-09-21T09:11:39.912Z,97556.50
2023-09-21T09:14:17.110Z,97553.59
2023-09-21T09:16:44.641Z,97548.25
2023-09-21T09:19:12.548Z,97545.97
2023-09-21T09:21:39.897Z,97533.31
2023-09-21T09:24:07.136Z,97540.81
2023-09-21T09:26:33.900Z,97535.06
2023-09-21T09:29:08.028Z,97533.03
2023-09-21T09:31:37.948Z,97512.53
2023-09-21T09:34:05.024Z,97492.00
2023-09-21T09:36:33.375Z,97470.16
2023-09-21T09:39:00.887Z,97477.84
2023-09-21T09:41:32.502Z,97462.16
2023-09-21T09:44:02.417Z,97456.19
2023-09-21T09:46:30.468Z,97451.06
2023-09-21T09:49:01.915Z,97451.72
2023-09-21T09:51:36.949Z,97444.03
2023-09-21T09:54:03.775Z,97443.38
2023-09-21T09:56:30.849Z,97437.44
2023-09-21T09:59:00.213Z,97433.25
2023-09-21T10:01:27.957Z,97431.00
2023-09-21T10:03:55.862Z,97415.41
2023-09-21T10:06:25.877Z,97417.50
2023-09-21T10:08:53.776Z,97414.91
2023-09-21T10:11:21.271Z,97409.81
2023-09-21T10:13:52.087Z,97395.84
2023-09-21T10:16:20.056Z,97400.16
2023-09-21T10:18:47.148Z,97404.09
2023-09-21T10:21:26.856Z,97405.31
2023-09-21T10:24:07.197Z,97403.09
2023-09-21T10:26:35.925Z,97392.63
2023-09-21T10:29:02.892Z,97380.66
2023-09-21T10:31:31.146Z,97387.34
2023-09-21T10:34:00.323Z,97381.50
2023-09-21T10:36:31.001Z,97371.56
2023-09-21T10:39:09.474Z,97367.00
2023-09-21T10:41:37.021Z,97364.53
2023-09-21T10:44:06.397Z,97359.78
2023-09-21T10:46:35.816Z,97356.09
2023-09-21T10:49:07.687Z,97354.66
2023-09-21T10:51:34.777Z,97356.00
2023-09-21T10:54:02.088Z,97357.47
2023-09-21T10:56:28.642Z,97348.94
2023-09-21T10:58:55.364Z,97346.03
2023-09-21T11:01:23.808Z,97342.75
2023-09-21T11:03:50.687Z,97334.25
2023-09-21T11:06:18.109Z,97327.03
2023-09-21T11:08:48.456Z,97322.25
2023-09-21T11:11:19.251Z,97312.34
2023-09-21T11:13:55.274Z,97309.28
2023-09-21T11:16:22.792Z,97307.66
2023-09-21T11:18:49.812Z,97300.16
2023-09-21T11:21:17.263Z,97298.94
2023-09-21T11:23:44.097Z,97298.75
2023-09-21T11:26:10.987Z,97285.09
2023-09-21T11:28:41.061Z,97291.63
2023-09-21T11:31:09.943Z,97281.16
2023-09-21T11:33:37.194Z,97270.16
2023-09-21T11:36:04.862Z,97269.44
2023-09-21T11:38:37.231Z,97267.28
2023-09-21T11:41:05.135Z,97272.53
2023-09-21T11:43:32.037Z,97267.38
2023-09-21T11:46:02.783Z,97256.66
2023-09-21T11:48:29.694Z,97262.75
2023-09-21T11:51:00.100Z,97249.34
2023-09-21T11:53:27.194Z,97242.25
2023-09-21T11:55:54.180Z,97238.06
2023-09-21T11:58:21.592Z,97226.53
2023-09-21T12:00:52.059Z,97224.34
2023-09-21T12:03:22.008Z,97211.50
2023-09-21T12:05:48.678Z,97226.00
2023-09-21T12:08:16.505Z,97213.59
2023-09-21T12:10:43.518Z,97209.59
2023-09-21T12:13:12.553Z,97206.97
2023-09-21T12:15:40.153Z,97199.44
2023-09-21T12:18:07.529Z,97197.63
2023-09-21T12:20:34.456Z,97191.91
2023-09-21T12:23:01.034Z,97173.66
2023-09-21T12:25:27.524Z,97180.06
2023-09-21T12:27:55.330Z,97181.53
2023-09-21T12:30:22.031Z,97177.94
2023-09-21T12:32:48.681Z,97173.19
2023-09-21T12:35:15.216Z,97167.00
2023-09-21T12:37:41.817Z,97166.75
2023-09-21T12:40:08.565Z,97155.63
2023-09-21T12:42:38.601Z,97161.03
2023-09-21T12:45:06.306Z,97158.19
2023-09-21T12:47:33.775Z,97147.84
2023-09-21T12:50:00.339Z,97135.53
2023-09-21T12:52:27.173Z,97139.78
2023-09-21T12:54:53.798Z,97139.88
2023-09-21T12:57:20.595Z,97136.34
2023-09-21T12:59:49.117Z,97129.28
2023-09-21T13:02:15.955Z,97131.22
2023-09-21T13:04:43.445Z,97131.47
2023-09-21T13:07:10.247Z,97129.66
2023-09-21T13:09:51.986Z,97122.34
2023-09-21T13:12:20.297Z,97113.63
2023-09-21T13:14:47.338Z,97108.91
2023-09-21T13:17:14.036Z,97110.16
2023-09-21T13:19:40.981Z,97104.84
2023-09-21T13:22:07.385Z,97102.81
2023-09-21T13:24:34.206Z,97092.50
2023-09-21T13:27:01.480Z,97094.25
2023-09-21T13:29:29.159Z,97096.06
2023-09-21T13:31:55.745Z,97094.81
2023-09-21T13:34:24.932Z,97095.03
2023-09-21T13:36:51.569Z,97089.06
2023-09-21T13:39:18.040Z,97082.16
2023-09-21T13:41:50.136Z,97082.56
2023-09-21T13:44:16.877Z,97081.41
2023-09-21T13:46:43.421Z,97082.28
2023-09-21T13:49:10.238Z,97075.72
2023-09-21T13:51:36.829Z,97077.47
2023-09-21T13:54:03.457Z,97073.63
2023-09-21T13:56:33.277Z,97075.22
2023-09-21T13:58:59.705Z,97074.34
2023-09-21T14:01:28.409Z,97070.41
2023-09-21T14:03:56.914Z,97063.75
2023-09-21T14:06:23.672Z,97057.88
2023-09-21T14:08:50.396Z,97051.13
2023-09-21T14:11:19.093Z,97049.13
2023-09-21T14:13:46.724Z,97050.16
2023-09-21T14:16:13.845Z,97052.38
2023-09-21T14:18:41.142Z,97045.38
2023-09-21T14:21:08.856Z,97049.84
2023-09-21T14:23:39.034Z,97040.53
2023-09-21T14:26:05.653Z,97041.56
2023-09-21T14:28:33.944Z,97050.09
2023-09-21T14:31:00.461Z,97043.97
2023-09-21T14:33:27.754Z,97038.25
2023-09-21T14:35:55.749Z,97042.47
2023-09-21T14:38:22.541Z,97041.50
2023-09-21T14:40:49.608Z,97042.03
2023-09-21T14:43:18.868Z,97045.72
2023-09-21T14:45:45.379Z,97038.66
2023-09-21T14:48:13.240Z,97035.91
2023-09-21T14:50:40.164Z,97033.69
2023-09-21T14:53:06.970Z,97023.69
2023-09-21T14:55:33.741Z,97022.50
2023-09-21T14:58:01.249Z,97011.13
2023-09-21T15:00:27.893Z,97011.78
2023-09-21T15:02:54.998Z,97009.84
2023-09-21T15:05:21.629Z,97013.75
2023-09-21T15:07:56.086Z,97011.44
2023-09-21T15:10:34.736Z,97010.22
2023-09-21T15:13:01.509Z,97018.44
2023-09-21T15:15:29.636Z,97017.06
2023-09-21T15:17:56.126Z,97021.88
2023-09-21T15:20:22.601Z,97007.94
2023-09-21T15:22:49.366Z,97015.44
2023-09-21T15:25:21.464Z,97011.34
2023-09-21T15:27:48.396Z,97013.72
2023-09-21T15:30:15.364Z,97014.47
2023-09-21T15:32:45.163Z,97022.16
2023-09-21T15:35:11.601Z,97015.53
2023-09-21T15:37:40.868Z,97015.78
2023-09-21T15:40:09.000Z,97002.75
2023-09-21T15:42:38.105Z,97000.97
2023-09-21T15:45:06.142Z,97008.06
2023-09-21T15:47:32.643Z,97004.75
2023-09-21T15:49:59.105Z,97007.41
2023-09-21T15:52:26.920Z,97010.75
2023-09-21T15:54:57.841Z,97007.44
2023-09-21T15:57:24.419Z,97002.53
2023-09-21T15:59:51.304Z,97005.16
2023-09-21T16:02:18.415Z,97001.41
2023-09-21T16:04:45.318Z,96999.25
2023-09-21T16:07:12.717Z,96990.91
2023-09-21T16:09:39.713Z,96984.31
2023-09-21T16:12:07.274Z,96991.13
2023-09-21T16:14:34.032Z,96989.97
2023-09-21T16:17:06.152Z,96990.88
2023-09-21T16:19:32.617Z,96991.69
2023-09-21T16:22:00.652Z,96990.41
2023-09-21T16:24:27.520Z,97000.78
2023-09-21T16:26:54.080Z,97001.78
2023-09-21T16:29:20.683Z,96995.44
2023-09-21T16:31:47.402Z,96999.22
2023-09-21T16:34:14.068Z,96982.56
2023-09-21T16:36:40.544Z,96997.19
2023-09-21T16:39:07.266Z,97000.22
2023-09-21T16:41:34.103Z,97000.88
2023-09-21T16:44:00.481Z,97001.56
2023-09-21T16:48:57.911Z,97007.44
2023-09-21T16:51:24.865Z,97011.31
2023-09-21T16:53:51.334Z,97008.72
2023-09-21T16:56:18.183Z,97021.94
2023-09-21T16:58:44.793Z,97025.34
2023-09-21T17:01:11.590Z,97040.47
2023-09-21T17:03:39.622Z,97062.53
2023-09-21T17:06:08.632Z,97052.16
2023-09-21T17:08:35.014Z,97115.09
2023-09-21T17:11:02.559Z,97221.09
2023-09-21T17:13:29.362Z,97133.75
2023-09-21T17:15:57.266Z,97113.38
2023-09-21T17:18:26.903Z,97180.22
2023-09-21T17:20:54.301Z,97191.41
2023-09-21T17:23:21.068Z,97200.84
2023-09-21T17:25:48.030Z,97219.38
2023-09-21T17:28:14.645Z,97235.38
2023-09-21T17:30:41.511Z,97242.91
2023-09-21T17:33:08.685Z,97261.47
2023-09-21T17:35:37.069Z,97219.34
2023-09-21T17:38:04.658Z,97172.28
2023-09-21T17:40:31.391Z,97172.91
2023-09-21T17:42:58.311Z,97169.06
2023-09-21T17:45:25.257Z,97160.41
2023-09-21T17:47:51.769Z,97191.47
2023-09-21T17:50:22.723Z,97250.06
2023-09-21T17:52:49.794Z,97279.94
2023-09-21T17:55:18.195Z,97291.28
2023-09-21T17:57:45.452Z,97305.16
2023-09-21T18:00:18.054Z,97316.31
2023-09-21T18:02:44.947Z,97318.06
2023-09-21T18:05:14.533Z,97332.41
2023-09-21T18:07:44.208Z,97328.25
2023-09-21T18:10:10.981Z,97324.84
2023-09-21T18:12:39.310Z,97334.31
2023-09-21T18:15:10.458Z,97325.47
2023-09-21T18:17:40.726Z,97324.84
2023-09-21T18:20:07.891Z,97351.88
2023-09-21T18:22:34.310Z,97370.34
2023-09-21T18:25:00.734Z,97372.56
2023-09-21T18:27:27.574Z,97378.00
2023-09-21T18:29:54.610Z,97384.69
2023-09-21T18:32:24.214Z,97404.50
2023-09-21T18:34:58.024Z,97419.03
2023-09-21T18:37:24.662Z,97448.25
2023-09-21T18:39:51.491Z,97457.53
2023-09-21T18:42:18.036Z,97477.88
2023-09-21T18:44:44.622Z,97470.19
2023-09-21T18:47:11.631Z,97463.66
2023-09-21T18:49:41.844Z,97455.59
2023-09-21T18:52:08.372Z,97493.47
2023-09-21T18:54:34.895Z,97529.72
2023-09-21T18:57:03.115Z,97512.91
2023-09-21T18:59:35.390Z,97514.22
2023-09-21T19:02:02.537Z,97539.38
2023-09-21T19:04:29.840Z,97666.75
2023-09-21T19:06:56.300Z,97624.72
2023-09-21T19:09:22.879Z,97637.75
2023-09-21T19:11:50.645Z,97681.00
2023-09-21T19:14:17.135Z,97696.91
2023-09-21T19:16:45.337Z,97772.78
2023-09-21T19:19:11.807Z,97776.53
2023-09-21T19:21:38.853Z,97781.69
2023-09-21T19:24:07.174Z,97802.13
2023-09-21T19:26:33.984Z,97830.84
2023-09-21T19:29:01.793Z,97826.31
2023-09-21T19:31:28.465Z,97847.63
2023-09-21T19:33:56.162Z,97917.91
2023-09-21T19:36:22.984Z,97972.97
2023-09-21T19:38:49.793Z,98097.06
2023-09-21T19:41:18.523Z,98226.91
2023-09-21T19:43:46.018Z,98258.41
2023-09-21T19:46:12.950Z,98265.28
2023-09-21T19:48:39.588Z,98229.59
2023-09-21T19:51:06.917Z,98229.94
2023-09-21T19:53:33.644Z,98248.78
2023-09-21T19:56:00.570Z,98242.81
2023-09-21T19:58:31.304Z,98243.94
2023-09-21T20:00:57.704Z,98228.13
2023-09-21T20:03:25.413Z,98239.41
2023-09-21T20:05:51.972Z,98255.13
2023-09-21T20:08:18.504Z,98291.53
2023-09-21T20:10:44.977Z,98308.38
2023-09-21T20:13:11.513Z,98299.66
2023-09-21T20:15:37.975Z,98324.69
2023-09-21T20:18:05.553Z,98305.66
2023-09-21T20:20:31.958Z,98315.16
2023-09-21T20:22:58.634Z,98301.16
2023-09-21T20:25:26.071Z,98346.03
2023-09-21T20:27:54.504Z,98426.44
2023-09-21T20:30:21.216Z,98497.00
2023-09-21T20:32:48.217Z,98588.28
2023-09-21T20:35:14.905Z,98626.31
2023-09-21T20:37:41.376Z,98714.44
2023-09-21T20:40:08.435Z,98726.66
2023-09-21T20:42:34.966Z,98727.03
2023-09-21T20:45:01.839Z,98726.19
2023-09-21T20:47:28.363Z,98796.06
2023-09-21T20:49:54.909Z,98905.44
2023-09-21T20:52:21.535Z,97809.34
2023-09-21T20:54:47.999Z,97765.34
2023-09-21T20:57:14.556Z,97733.63
2023-09-21T20:59:41.037Z,97704.50
2023-09-21T21:02:07.595Z,97685.66
2023-09-21T21:04:36.692Z,97687.25
2023-09-21T21:07:03.220Z,97682.34
2023-09-21T21:09:29.978Z,97663.16
2023-09-21T21:11:56.438Z,97675.25
2023-09-21T21:14:22.834Z,97660.41
2023-09-21T21:16:49.564Z,97644.06
2023-09-21T21:19:16.601Z,97604.38
2023-09-21T21:21:43.364Z,97599.53
2023-09-21T21:24:10.068Z,97583.63
2023-09-21T21:26:36.468Z,97564.50
2023-09-21T21:29:02.955Z,97555.06
2023-09-21T21:31:30.075Z,97557.22
2023-09-21T21:33:56.629Z,97574.69
2023-09-21T21:36:23.585Z,97597.03
2023-09-21T21:38:50.063Z,97636.66
2023-09-21T21:41:16.845Z,97645.44
2023-09-21T21:43:45.163Z,97620.38
2023-09-21T21:46:15.504Z,97586.78
2023-09-21T21:48:42.026Z,97554.78
2023-09-21T21:51:08.726Z,97557.78
2023-09-21T21:53:35.377Z,97560.47
2023-09-21T21:56:01.799Z,97572.03
2023-09-21T21:58:28.533Z,97588.00
2023-09-21T22:00:55.293Z,97624.09
2023-09-21T22:03:21.869Z,97621.44
2023-09-21T22:05:49.497Z,97613.84
2023-09-21T22:08:17.200Z,97635.88
2023-09-21T22:10:43.880Z,97635.13
2023-09-21T22:13:11.182Z,97622.69
2023-09-21T22:15:38.168Z,97629.66
2023-09-21T22:18:05.833Z,97639.72
2023-09-21T22:20:32.480Z,97636.75
2023-09-21T22:22:58.949Z,97647.78
2023-09-21T22:25:28.307Z,97648.59
2023-09-21T22:27:55.615Z,97645.63
2023-09-21T22:30:22.369Z,97663.69
2023-09-21T22:32:49.090Z,97665.09
2023-09-21T22:35:15.810Z,97679.56
2023-09-21T22:37:43.542Z,97641.22
2023-09-21T22:40:10.921Z,97633.19
2023-09-21T22:42:48.203Z,97637.53
2023-09-21T22:45:16.812Z,97603.56
2023-09-21T22:47:44.570Z,97565.56
2023-09-21T22:50:12.800Z,97540.97
2023-09-21T22:52:39.327Z,97517.56
2023-09-21T22:55:06.061Z,97529.41
2023-09-21T22:57:41.672Z,97528.81
2023-09-21T23:00:08.744Z,97538.53
2023-09-21T23:02:35.188Z,97543.91
2023-09-21T23:05:01.645Z,97563.81
2023-09-21T23:07:28.196Z,97598.06
2023-09-21T23:09:55.980Z,97592.16
2023-09-21T23:12:22.986Z,97602.47
2023-09-21T23:14:49.359Z,97619.63
2023-09-21T23:17:15.761Z,97627.44
2023-09-21T23:19:42.415Z,97625.63
2023-09-21T23:22:08.869Z,97627.16
2023-09-21T23:27:03.444Z,97602.72
2023-09-21T23:29:30.278Z,97620.53
2023-09-21T23:31:56.660Z,97658.19
2023-09-21T23:34:23.412Z,97656.50
2023-09-21T23:36:50.105Z,97626.28
2023-09-21T23:39:16.833Z,97620.03
2023-09-21T23:41:43.278Z,97626.84
2023-09-21T23:44:09.689Z,97598.28
2023-09-21T23:46:36.366Z,97607.94
2023-09-21T23:49:02.954Z,97596.88
2023-09-21T23:51:29.315Z,97574.78
2023-09-21T23:53:55.932Z,97552.97
2023-09-21T23:56:22.413Z,97555.41
2023-09-21T23:58:48.960Z,97565.09
